createdAt,value
2017-07-07T14:44:07.698Z,989.62
2017-07-07T14:45:06.603Z,989.67
2017-07-07T14:46:06.608Z,989.62
2017-07-07T14:47:06.617Z,989.7
2017-07-07T14:48:06.628Z,989.68
2017-07-07T14:49:06.625Z,989.73
2017-07-07T14:50:06.636Z,989.81
2017-07-07T14:51:06.656Z,989.74
2017-07-07T14:52:06.655Z,989.69
2017-07-07T14:53:06.672Z,989.81
2017-07-07T14:54:06.662Z,989.79
2017-07-07T14:55:06.670Z,989.86
2017-07-07T14:56:06.676Z,989.75
2017-07-07T14:57:06.683Z,989.69
2017-07-07T14:58:06.690Z,989.68
2017-07-07T14:59:06.753Z,989.71
2017-07-07T15:00:06.720Z,989.67
2017-07-07T15:01:06.720Z,989.59
2017-07-07T15:02:06.721Z,989.58
2017-07-07T15:03:06.729Z,989.58
2017-07-07T15:04:06.752Z,989.55
2017-07-07T15:05:06.756Z,989.53
2017-07-07T15:06:06.752Z,989.53
2017-07-07T15:07:06.761Z,989.49
2017-07-07T15:08:06.768Z,989.4
2017-07-07T15:09:06.776Z,989.52
2017-07-07T15:10:06.786Z,989.56
2017-07-07T15:11:06.796Z,989.51
2017-07-07T15:12:06.802Z,989.47
2017-07-07T15:13:06.808Z,989.57
2017-07-07T15:14:06.819Z,989.51
2017-07-07T15:15:06.827Z,989.57
2017-07-07T15:16:06.833Z,989.63
2017-07-07T15:17:06.841Z,989.54
2017-07-07T15:18:06.849Z,989.51
2017-07-07T15:19:06.868Z,989.46
2017-07-07T15:20:06.878Z,989.48
2017-07-07T15:21:06.873Z,989.43
2017-07-07T15:22:06.883Z,989.36
2017-07-07T15:23:06.889Z,989.33
2017-07-07T15:24:06.915Z,989.4
2017-07-07T15:25:06.910Z,989.35
2017-07-07T15:26:06.923Z,989.5
2017-07-07T15:27:06.929Z,989.41
2017-07-07T15:28:06.949Z,989.34
2017-07-07T15:29:06.942Z,989.3
2017-07-07T15:30:06.952Z,989.21
2017-07-07T15:31:06.958Z,989.31
2017-07-07T15:32:06.970Z,989.26
2017-07-07T15:33:07.041Z,989.3
2017-07-07T15:34:06.982Z,989.33
2017-07-07T15:35:06.993Z,989.35
2017-07-07T15:36:07.001Z,989.36
2017-07-07T15:37:07.010Z,989.37
2017-07-07T15:38:07.018Z,989.32
2017-07-07T15:39:07.024Z,989.38
2017-07-07T15:40:07.036Z,989.41
2017-07-07T15:41:07.043Z,989.42
2017-07-07T15:42:07.051Z,989.32
2017-07-07T15:43:07.060Z,989.35
2017-07-07T15:44:07.068Z,989.4
2017-07-07T15:45:07.082Z,989.28
2017-07-07T15:46:07.084Z,989.27
2017-07-07T15:47:07.100Z,989.29
2017-07-07T15:48:07.104Z,989.29
2017-07-07T15:49:07.110Z,989.24
2017-07-07T15:50:07.119Z,989.31
2017-07-07T15:51:07.126Z,989.32
2017-07-07T15:52:07.141Z,989.28
2017-07-07T15:53:07.146Z,989.24
2017-07-07T15:54:07.151Z,989.2
2017-07-07T15:55:07.167Z,989.17
2017-07-07T15:56:07.171Z,989.08
2017-07-07T15:57:07.183Z,989.06
2017-07-07T15:58:07.184Z,989.05
2017-07-07T15:59:07.192Z,989.01
2017-07-07T16:00:12.245Z,989.04
2017-07-07T16:01:07.209Z,989.07
2017-07-07T16:02:07.218Z,989.08
2017-07-07T16:03:07.226Z,989.1
2017-07-07T16:04:07.233Z,989.08
2017-07-07T16:05:07.243Z,989.05
2017-07-07T16:06:07.258Z,989.13
2017-07-07T16:07:07.261Z,989.07
2017-07-07T16:08:07.264Z,989.09
2017-07-07T16:09:07.271Z,989.1
2017-07-07T16:10:07.278Z,989.16
2017-07-07T16:11:07.286Z,989.21
2017-07-07T16:12:07.293Z,989.33
2017-07-07T16:13:07.305Z,989.4
2017-07-07T16:14:07.316Z,989.45
2017-07-07T16:15:07.322Z,989.55
2017-07-07T16:16:07.325Z,989.54
2017-07-07T16:17:07.333Z,989.45
2017-07-07T16:18:07.339Z,989.47
2017-07-07T16:19:07.348Z,989.48
2017-07-07T16:20:07.361Z,989.46
2017-07-07T16:21:07.364Z,989.48
2017-07-07T16:22:07.371Z,989.48
2017-07-07T16:23:07.379Z,989.43
2017-07-07T16:24:07.388Z,989.46
2017-07-07T16:25:07.401Z,989.38
2017-07-07T16:26:07.402Z,989.36
2017-07-07T16:27:07.410Z,989.35
2017-07-07T16:28:07.418Z,989.31
2017-07-07T16:29:07.426Z,989.31
2017-07-07T16:30:07.433Z,989.33
2017-07-07T16:31:07.441Z,989.37
2017-07-07T16:32:07.452Z,989.39
2017-07-07T16:33:07.458Z,989.32
2017-07-07T16:34:07.464Z,989.33
2017-07-07T16:35:07.474Z,989.35
2017-07-07T16:36:07.484Z,989.33
2017-07-07T16:37:07.492Z,989.41
2017-07-07T16:38:07.496Z,989.4
2017-07-07T16:39:07.504Z,989.43
2017-07-07T16:40:07.510Z,989.5
2017-07-07T16:41:07.518Z,989.46
2017-07-07T16:42:07.526Z,989.38
2017-07-07T16:43:07.560Z,989.37
2017-07-07T16:44:07.547Z,989.39
2017-07-07T16:45:07.579Z,989.41
2017-07-07T16:46:09.611Z,989.47
2017-07-07T16:47:07.569Z,989.48
2017-07-07T16:48:07.572Z,989.45
2017-07-07T16:49:07.589Z,989.4
2017-07-07T16:50:07.607Z,989.44
2017-07-07T16:51:07.597Z,989.4
2017-07-07T16:52:07.609Z,989.4
2017-07-07T16:53:07.616Z,989.42
2017-07-07T16:54:07.628Z,989.41
2017-07-07T16:55:07.630Z,989.49
2017-07-07T16:56:07.629Z,989.46
2017-07-07T16:57:07.641Z,989.52
2017-07-07T16:58:07.646Z,989.52
2017-07-07T16:59:07.651Z,989.55
2017-07-07T17:00:07.720Z,989.53
2017-07-07T17:01:07.665Z,989.52
2017-07-07T17:02:07.668Z,989.49
2017-07-07T17:04:07.685Z,989.47
2017-07-07T17:05:07.691Z,989.42
2017-07-07T17:06:07.711Z,989.46
2017-07-07T17:07:07.708Z,989.45
2017-07-07T17:08:07.722Z,989.46
2017-07-07T17:09:07.721Z,989.47
2017-07-07T17:10:07.736Z,989.48
2017-07-07T17:11:07.733Z,989.42
2017-07-07T17:12:07.740Z,989.37
2017-07-07T17:13:07.745Z,989.34
2017-07-07T17:14:07.759Z,989.32
2017-07-07T17:15:07.776Z,989.32
2017-07-07T17:16:07.770Z,989.32
2017-07-07T17:17:07.774Z,989.31
2017-07-07T17:18:07.782Z,989.32
2017-07-07T17:19:07.787Z,989.39
2017-07-07T17:20:07.831Z,989.37
2017-07-07T17:21:07.799Z,989.36
2017-07-07T17:22:07.805Z,989.4
2017-07-07T17:23:07.812Z,989.37
2017-07-07T17:24:07.818Z,989.41
2017-07-07T17:25:07.889Z,989.42
2017-07-07T17:26:07.832Z,989.42
2017-07-07T17:27:07.840Z,989.41
2017-07-07T17:28:07.845Z,989.44
2017-07-07T17:29:07.852Z,989.45
2017-07-07T17:30:07.928Z,989.48
2017-07-07T17:31:07.864Z,989.49
2017-07-07T17:32:07.872Z,989.53
2017-07-07T17:33:07.877Z,989.55
2017-07-07T17:34:07.888Z,989.61
2017-07-07T17:35:08.052Z,989.54
2017-07-07T17:36:07.896Z,989.55
2017-07-07T17:37:07.904Z,989.56
2017-07-07T17:38:07.910Z,989.58
2017-07-07T17:39:07.915Z,989.57
2017-07-07T17:40:08.100Z,989.59
2017-07-07T17:41:07.929Z,989.56
2017-07-07T17:42:07.935Z,989.53
2017-07-07T17:43:07.940Z,989.56
2017-07-07T17:44:07.950Z,989.57
2017-07-07T17:45:08.017Z,989.6
2017-07-07T17:46:07.963Z,989.61
2017-07-07T17:47:08.516Z,989.68
2017-07-07T17:48:07.972Z,989.67
2017-07-07T17:49:07.985Z,989.69
2017-07-07T17:50:08.177Z,989.7
2017-07-07T17:51:07.993Z,989.69
2017-07-07T17:52:07.999Z,989.69
2017-07-07T17:53:08.006Z,989.72
2017-07-07T17:54:08.013Z,989.78
2017-07-07T17:55:08.036Z,989.83
2017-07-07T17:56:08.027Z,989.82
2017-07-07T17:57:08.034Z,989.85
2017-07-07T17:58:08.041Z,989.82
2017-07-07T17:59:08.059Z,989.83
2017-07-07T18:00:08.187Z,989.83
2017-07-07T18:01:08.059Z,989.86
2017-07-07T18:02:08.067Z,989.83
2017-07-07T18:03:08.086Z,989.88
2017-07-07T18:04:08.084Z,989.86
2017-07-07T18:05:08.316Z,989.89
2017-07-07T18:06:08.092Z,989.88
2017-07-07T18:07:08.099Z,989.88
2017-07-07T18:08:08.105Z,989.9
2017-07-07T18:09:08.112Z,989.86
2017-07-07T18:10:08.229Z,989.84
2017-07-07T18:11:08.126Z,989.82
2017-07-07T18:12:08.155Z,989.83
2017-07-07T18:13:08.161Z,989.78
2017-07-07T18:14:08.151Z,989.73
2017-07-07T18:15:08.394Z,989.68
2017-07-07T18:16:08.160Z,989.69
2017-07-07T18:17:08.165Z,989.67
2017-07-07T18:18:08.174Z,989.65
2017-07-07T18:19:08.191Z,989.64
2017-07-07T18:20:08.456Z,989.64
2017-07-07T18:21:08.195Z,989.59
2017-07-07T18:22:08.201Z,989.57
2017-07-07T18:23:08.202Z,989.61
2017-07-07T18:24:08.209Z,989.56
2017-07-07T18:25:08.220Z,989.51
2017-07-07T18:26:08.221Z,989.49
2017-07-07T18:27:08.227Z,989.51
2017-07-07T18:28:08.234Z,989.47
2017-07-07T18:29:08.245Z,989.45
2017-07-07T18:30:08.397Z,989.47
2017-07-07T18:31:08.255Z,989.49
2017-07-07T18:32:08.260Z,989.54
2017-07-07T18:33:08.266Z,989.55
2017-07-07T18:34:08.271Z,989.59
2017-07-07T18:35:08.316Z,989.67
2017-07-07T18:36:08.286Z,989.71
2017-07-07T18:37:08.293Z,989.79
2017-07-07T18:38:08.298Z,989.87
2017-07-07T18:39:08.303Z,989.95
2017-07-07T18:40:08.534Z,990.08
2017-07-07T18:41:08.315Z,990.24
2017-07-07T18:42:08.324Z,990.31
2017-07-07T18:43:08.328Z,990.32
2017-07-07T18:44:08.341Z,990.32
2017-07-07T18:45:08.623Z,990.47
2017-07-07T18:46:08.346Z,990.58
2017-07-07T18:47:08.354Z,990.59
2017-07-07T18:48:08.357Z,990.7
2017-07-07T18:49:08.363Z,990.78
2017-07-07T18:50:08.566Z,990.76
2017-07-07T18:51:08.380Z,990.54
2017-07-07T18:52:08.383Z,990.46
2017-07-07T18:53:08.386Z,990.39
2017-07-07T18:54:08.392Z,990.22
2017-07-07T18:55:08.671Z,990.24
2017-07-07T18:56:08.407Z,990.23
2017-07-07T18:57:08.407Z,990.15
2017-07-07T18:58:08.418Z,990.2
2017-07-07T18:59:08.418Z,990.22
2017-07-07T19:00:08.591Z,990.29
2017-07-07T19:01:08.429Z,990.27
2017-07-07T19:02:08.435Z,990.19
2017-07-07T19:03:08.438Z,990.25
2017-07-07T19:04:08.444Z,990.15
2017-07-07T19:05:08.671Z,990.12
2017-07-07T19:06:08.458Z,990.18
2017-07-07T19:07:08.458Z,990.11
2017-07-07T19:08:08.464Z,990.13
2017-07-07T19:09:08.473Z,990.11
2017-07-07T19:10:08.668Z,990.16
2017-07-07T19:11:08.477Z,990.08
2017-07-07T19:12:08.488Z,990.11
2017-07-07T19:13:08.489Z,990.07
2017-07-07T19:14:08.500Z,990.09
2017-07-07T19:15:08.723Z,990.01
2017-07-07T19:16:08.503Z,990.05
2017-07-07T19:17:08.509Z,990.02
2017-07-07T19:18:08.513Z,990.03
2017-07-07T19:19:08.520Z,990.04
2017-07-07T19:20:08.722Z,989.96
2017-07-07T19:21:08.527Z,989.96
2017-07-07T19:22:08.533Z,989.94
2017-07-07T19:23:08.537Z,989.88
2017-07-07T19:24:08.543Z,989.95
2017-07-07T19:25:08.892Z,989.88
2017-07-07T19:26:08.552Z,989.86
2017-07-07T19:27:08.558Z,989.85
2017-07-07T19:28:08.562Z,989.81
2017-07-07T19:29:08.568Z,989.87
2017-07-07T19:30:08.983Z,989.9
2017-07-07T19:31:08.581Z,989.97
2017-07-07T19:32:08.581Z,990.01
2017-07-07T19:33:08.587Z,990.04
2017-07-07T19:34:08.597Z,990.01
2017-07-07T19:35:08.598Z,990.06
2017-07-07T19:36:08.601Z,990.04
2017-07-07T19:37:08.606Z,990.03
2017-07-07T19:38:08.612Z,990.09
2017-07-07T19:39:08.616Z,990.05
2017-07-07T19:40:08.886Z,990.06
2017-07-07T19:41:08.632Z,990.06
2017-07-07T19:42:08.686Z,990.1
2017-07-07T19:43:08.689Z,990.08
2017-07-07T19:44:08.643Z,990.14
2017-07-07T19:45:08.880Z,990.14
2017-07-07T19:46:08.650Z,990.18
2017-07-07T19:47:08.656Z,990.26
2017-07-07T19:48:08.768Z,990.29
2017-07-07T19:49:08.666Z,990.3
2017-07-07T19:50:08.987Z,990.29
2017-07-07T19:51:08.674Z,990.29
2017-07-07T19:52:08.679Z,990.28
2017-07-07T19:53:08.685Z,990.33
2017-07-07T19:54:08.688Z,990.34
2017-07-07T19:55:08.990Z,990.37
2017-07-07T19:56:08.699Z,990.36
2017-07-07T19:57:08.704Z,990.42
2017-07-07T19:58:08.707Z,990.46
2017-07-07T19:59:08.714Z,990.45
2017-07-07T20:00:09.000Z,990.53
2017-07-07T20:01:08.722Z,990.47
2017-07-07T20:02:08.726Z,990.46
2017-07-07T20:03:12.986Z,990.48
2017-07-07T20:04:08.737Z,990.5
2017-07-07T20:05:09.029Z,990.46
2017-07-07T20:06:08.744Z,990.5
2017-07-07T20:07:08.752Z,990.49
2017-07-07T20:08:08.766Z,990.53
2017-07-07T20:09:08.765Z,990.56
2017-07-07T20:10:09.015Z,990.58
2017-07-07T20:11:08.769Z,990.58
2017-07-07T20:12:08.778Z,990.59
2017-07-07T20:13:08.785Z,990.56
2017-07-07T20:14:08.782Z,990.6
2017-07-07T20:15:08.787Z,990.68
2017-07-07T20:16:08.791Z,990.7
2017-07-07T20:17:08.806Z,990.72
2017-07-07T20:18:08.818Z,990.72
2017-07-07T20:19:08.804Z,990.77
2017-07-07T20:20:09.063Z,990.74
2017-07-07T20:21:08.812Z,990.73
2017-07-07T20:22:08.819Z,990.72
2017-07-07T20:23:08.836Z,990.72
2017-07-07T20:24:08.828Z,990.68
2017-07-07T20:25:09.165Z,990.7
2017-07-07T20:26:08.834Z,990.69
2017-07-07T20:27:08.837Z,990.71
2017-07-07T20:28:08.849Z,990.72
2017-07-07T20:29:08.847Z,990.74
2017-07-07T20:30:09.127Z,990.76
2017-07-07T20:31:08.856Z,990.8
2017-07-07T20:32:08.858Z,990.81
2017-07-07T20:33:08.862Z,990.83
2017-07-07T20:34:08.886Z,990.83
2017-07-07T20:35:09.229Z,990.84
2017-07-07T20:36:08.875Z,990.83
2017-07-07T20:37:08.882Z,990.86
2017-07-07T20:38:08.888Z,990.85
2017-07-07T20:39:08.886Z,990.87
2017-07-07T20:40:09.257Z,990.88
2017-07-07T20:41:08.898Z,990.86
2017-07-07T20:42:08.900Z,990.87
2017-07-07T20:43:08.908Z,990.83
2017-07-07T20:44:08.908Z,990.88
2017-07-07T20:45:09.184Z,990.86
2017-07-07T20:46:08.917Z,990.89
2017-07-07T20:47:08.921Z,990.89
2017-07-07T20:48:08.926Z,990.86
2017-07-07T20:49:08.928Z,990.9
2017-07-07T20:50:09.294Z,990.91
2017-07-07T20:51:08.940Z,990.93
2017-07-07T20:52:08.942Z,990.94
2017-07-07T20:53:08.949Z,990.97
2017-07-07T20:54:08.949Z,990.98
2017-07-07T20:55:09.398Z,991
2017-07-07T20:56:08.959Z,990.99
2017-07-07T20:57:08.963Z,991.02
2017-07-07T20:58:08.968Z,990.95
2017-07-07T20:59:08.981Z,991.01
2017-07-07T21:00:09.275Z,991.05
2017-07-07T21:01:08.980Z,991.1
2017-07-07T21:02:08.984Z,991.1
2017-07-07T21:03:08.993Z,991.1
2017-07-07T21:04:08.993Z,991.08
2017-07-07T21:05:09.427Z,991.06
2017-07-07T21:06:09.001Z,991.13
2017-07-07T21:07:09.005Z,991.08
2017-07-07T21:08:09.008Z,991.14
2017-07-07T21:09:09.013Z,991.11
2017-07-07T21:10:09.436Z,991.13
